Portada
Imágenes satélite Pronóstico 15 díasClimaPredicción Marítima Ciclones Rayo AeropuertosFAQ Noticias Acerca
El tiempo : Europa África América del Norte América del Sur Asia Australia-Oceanía Otros
Idiomas Contacto

Buenos Aires, Argentina

Aeroparque Jorge Newbery

latitud: 34-34S, longitud: 058-25W, altitud: 6 m


METAR: SABE 210800Z 36012KT CAVOK 19/12 Q1018
TAF: SABE 210500Z 2106/2206 05010KT CAVOK TX28/2118Z TN13/2110Z BECMG 2110/2112 36015KT

Hora: 05:42 (08:42 UTC)

Observación

El informe se hizo hace 42 minutos, a las 08:00 UTC  
Viento 12 kt del norte
Temperatura 19°C
Humedad 64%
Presión 1018 hPa
Visibilidad 10 km o más
sin nubes por debajo de 1500 m y sin presencia de cumulonimbus.

Cambiar las unidades

Pronóstico

El informe se hizo hace 03 horas y 42 minutos, a las 05:00 UTC  
Pronóstico válido del 21 a las 06 UTC al 22 a las 06 UTC
Viento 10 kt del noreste
Visibilidad 10 km o más
sin nubes por debajo de 1500 m y sin presencia de cumulonimbus.
Evolucionando progresivamente
del 21 a las 10 UTC al 21 a las 12 UTC
Viento 15 kt del norte
La información que se ofrece en estas páginas está sujeta a una cláusula de exención de responsabilidad
El tiempo : Europa África América del Norte América del Sur Asia Australia-Oceanía Otros
Imágenes satélite Pronóstico 15 díasClimaPredicción Marítima Ciclones Rayo AeropuertosFAQ Idiomas Contacto Noticias Acerca